sensor_id;sensor_type;location;lat;lon;timestamp;P1;durP1;ratioP1;P2;durP2;ratioP2
51451;SDS011;37521;52.020;-1.740;2022-09-30T00:01:48;2.45;;;1.33;;
51451;SDS011;37521;52.020;-1.740;2022-09-30T00:04:19;2.92;;;1.67;;
51451;SDS011;37521;52.020;-1.740;2022-09-30T00:06:49;1.38;;;1.17;;
51451;SDS011;37521;52.020;-1.740;2022-09-30T00:09:19;2.10;;;1.25;;
51451;SDS011;37521;52.020;-1.740;2022-09-30T00:11:48;2.65;;;1.30;;
51451;SDS011;37521;52.020;-1.740;2022-09-30T00:14:17;1.30;;;1.13;;
51451;SDS011;37521;52.020;-1.740;2022-09-30T00:16:47;1.27;;;1.17;;
51451;SDS011;37521;52.020;-1.740;2022-09-30T00:19:16;1.33;;;1.13;;
51451;SDS011;37521;52.020;-1.740;2022-09-30T00:21:45;1.20;;;1.10;;
51451;SDS011;37521;52.020;-1.740;2022-09-30T00:24:14;2.08;;;1.08;;
51451;SDS011;37521;52.020;-1.740;2022-09-30T00:26:43;1.10;;;1.02;;
51451;SDS011;37521;52.020;-1.740;2022-09-30T00:29:11;2.22;;;1.38;;
51451;SDS011;37521;52.020;-1.740;2022-09-30T00:31:40;1.88;;;1.25;;
51451;SDS011;37521;52.020;-1.740;2022-09-30T00:34:08;2.55;;;1.05;;
51451;SDS011;37521;52.020;-1.740;2022-09-30T00:36:38;1.70;;;0.98;;
51451;SDS011;37521;52.020;-1.740;2022-09-30T00:39:12;2.67;;;1.40;;
51451;SDS011;37521;52.020;-1.740;2022-09-30T00:41:43;1.48;;;1.10;;
51451;SDS011;37521;52.020;-1.740;2022-09-30T00:50:11;3.05;;;1.48;;
51451;SDS011;37521;52.020;-1.740;2022-09-30T00:52:45;1.23;;;1.13;;
51451;SDS011;37521;52.020;-1.740;2022-09-30T00:55:22;1.88;;;0.98;;
51451;SDS011;37521;52.020;-1.740;2022-09-30T00:57:56;1.00;;;0.90;;
51451;SDS011;37521;52.020;-1.740;2022-09-30T01:00:28;2.10;;;1.48;;
51451;SDS011;37521;52.020;-1.740;2022-09-30T01:02:57;2.72;;;1.33;;
51451;SDS011;37521;52.020;-1.740;2022-09-30T01:05:25;2.20;;;1.10;;
51451;SDS011;37521;52.020;-1.740;2022-09-30T01:07:54;1.13;;;0.98;;
51451;SDS011;37521;52.020;-1.740;2022-09-30T01:10:26;0.82;;;0.82;;
51451;SDS011;37521;52.020;-1.740;2022-09-30T01:12:54;1.33;;;0.90;;
51451;SDS011;37521;52.020;-1.740;2022-09-30T01:15:32;1.50;;;1.40;;
51451;SDS011;37521;52.020;-1.740;2022-09-30T01:18:11;1.00;;;0.93;;
51451;SDS011;37521;52.020;-1.740;2022-09-30T01:20:53;1.67;;;1.08;;
51451;SDS011;37521;52.020;-1.740;2022-09-30T01:23:42;1.75;;;1.10;;
51451;SDS011;37521;52.020;-1.740;2022-09-30T01:26:37;1.25;;;0.95;;
51451;SDS011;37521;52.020;-1.740;2022-09-30T01:32:08;2.97;;;0.80;;
51451;SDS011;37521;52.020;-1.740;2022-09-30T01:34:46;1.58;;;1.23;;
51451;SDS011;37521;52.020;-1.740;2022-09-30T01:37:22;1.75;;;1.42;;
51451;SDS011;37521;52.020;-1.740;2022-09-30T01:39:57;1.23;;;1.13;;
51451;SDS011;37521;52.020;-1.740;2022-09-30T01:42:34;3.60;;;1.73;;
51451;SDS011;37521;52.020;-1.740;2022-09-30T01:45:09;3.25;;;2.03;;
51451;SDS011;37521;52.020;-1.740;2022-09-30T01:47:43;2.88;;;1.80;;
51451;SDS011;37521;52.020;-1.740;2022-09-30T01:50:16;1.88;;;1.52;;
51451;SDS011;37521;52.020;-1.740;2022-09-30T01:52:51;6.28;;;2.15;;
51451;SDS011;37521;52.020;-1.740;2022-09-30T01:55:26;2.85;;;2.03;;
51451;SDS011;37521;52.020;-1.740;2022-09-30T01:58:00;2.33;;;2.08;;
51451;SDS011;37521;52.020;-1.740;2022-09-30T02:00:37;2.28;;;1.52;;
51451;SDS011;37521;52.020;-1.740;2022-09-30T02:03:11;2.67;;;1.70;;
51451;SDS011;37521;52.020;-1.740;2022-09-30T02:05:45;3.72;;;2.08;;
51451;SDS011;37521;52.020;-1.740;2022-09-30T02:08:20;2.63;;;2.40;;
51451;SDS011;37521;52.020;-1.740;2022-09-30T02:10:53;1.85;;;1.73;;
51451;SDS011;37521;52.020;-1.740;2022-09-30T02:13:28;2.70;;;1.70;;
51451;SDS011;37521;52.020;-1.740;2022-09-30T02:16:02;3.65;;;2.38;;
51451;SDS011;37521;52.020;-1.740;2022-09-30T02:18:40;2.90;;;1.27;;
51451;SDS011;37521;52.020;-1.740;2022-09-30T02:21:13;2.30;;;1.55;;
51451;SDS011;37521;52.020;-1.740;2022-09-30T02:23:46;1.38;;;1.27;;
51451;SDS011;37521;52.020;-1.740;2022-09-30T02:26:20;1.75;;;1.58;;
51451;SDS011;37521;52.020;-1.740;2022-09-30T02:28:53;3.08;;;1.80;;
51451;SDS011;37521;52.020;-1.740;2022-09-30T02:31:30;2.88;;;1.83;;
51451;SDS011;37521;52.020;-1.740;2022-09-30T02:34:05;3.47;;;2.17;;
51451;SDS011;37521;52.020;-1.740;2022-09-30T02:36:37;2.78;;;2.05;;
51451;SDS011;37521;52.020;-1.740;2022-09-30T02:39:11;2.03;;;1.55;;
51451;SDS011;37521;52.020;-1.740;2022-09-30T02:41:43;1.63;;;1.53;;
51451;SDS011;37521;52.020;-1.740;2022-09-30T02:44:17;3.67;;;1.60;;
51451;SDS011;37521;52.020;-1.740;2022-09-30T02:46:50;3.13;;;1.63;;
51451;SDS011;37521;52.020;-1.740;2022-09-30T02:49:27;1.55;;;1.33;;
51451;SDS011;37521;52.020;-1.740;2022-09-30T02:52:03;1.85;;;1.55;;
51451;SDS011;37521;52.020;-1.740;2022-09-30T02:54:40;1.23;;;1.20;;
51451;SDS011;37521;52.020;-1.740;2022-09-30T02:57:19;2.30;;;1.65;;
51451;SDS011;37521;52.020;-1.740;2022-09-30T02:59:56;1.85;;;1.58;;
51451;SDS011;37521;52.020;-1.740;2022-09-30T03:02:28;4.83;;;1.77;;
51451;SDS011;37521;52.020;-1.740;2022-09-30T03:04:58;2.65;;;2.10;;
51451;SDS011;37521;52.020;-1.740;2022-09-30T03:07:26;3.35;;;1.65;;
51451;SDS011;37521;52.020;-1.740;2022-09-30T03:09:56;2.05;;;1.23;;
51451;SDS011;37521;52.020;-1.740;2022-09-30T03:12:29;1.95;;;1.45;;
51451;SDS011;37521;52.020;-1.740;2022-09-30T03:15:09;1.98;;;1.40;;
51451;SDS011;37521;52.020;-1.740;2022-09-30T03:17:53;1.55;;;1.45;;
51451;SDS011;37521;52.020;-1.740;2022-09-30T03:20:35;2.13;;;1.65;;
51451;SDS011;37521;52.020;-1.740;2022-09-30T03:23:15;1.63;;;1.33;;
51451;SDS011;37521;52.020;-1.740;2022-09-30T03:26:05;2.42;;;1.17;;
51451;SDS011;37521;52.020;-1.740;2022-09-30T03:28:43;1.20;;;1.10;;
51451;SDS011;37521;52.020;-1.740;2022-09-30T03:31:22;1.35;;;1.20;;
51451;SDS011;37521;52.020;-1.740;2022-09-30T03:34:00;1.70;;;1.38;;
51451;SDS011;37521;52.020;-1.740;2022-09-30T03:36:43;1.50;;;1.20;;
51451;SDS011;37521;52.020;-1.740;2022-09-30T03:39:23;1.40;;;1.10;;
51451;SDS011;37521;52.020;-1.740;2022-09-30T03:41:57;1.60;;;1.30;;
51451;SDS011;37521;52.020;-1.740;2022-09-30T03:44:34;1.83;;;1.08;;
51451;SDS011;37521;52.020;-1.740;2022-09-30T03:47:08;1.55;;;1.20;;
51451;SDS011;37521;52.020;-1.740;2022-09-30T03:49:41;1.67;;;1.45;;
51451;SDS011;37521;52.020;-1.740;2022-09-30T03:52:16;2.13;;;1.63;;
51451;SDS011;37521;52.020;-1.740;2022-09-30T03:54:46;1.75;;;1.15;;
51451;SDS011;37521;52.020;-1.740;2022-09-30T03:57:17;1.65;;;1.42;;
51451;SDS011;37521;52.020;-1.740;2022-09-30T03:59:45;5.70;;;1.35;;
51451;SDS011;37521;52.020;-1.740;2022-09-30T04:02:14;3.47;;;1.45;;
51451;SDS011;37521;52.020;-1.740;2022-09-30T04:04:42;3.38;;;1.77;;
51451;SDS011;37521;52.020;-1.740;2022-09-30T04:07:10;1.52;;;1.15;;
51451;SDS011;37521;52.020;-1.740;2022-09-30T04:09:40;1.88;;;1.55;;
51451;SDS011;37521;52.020;-1.740;2022-09-30T04:12:08;2.53;;;1.40;;
51451;SDS011;37521;52.020;-1.740;2022-09-30T04:14:37;2.42;;;1.65;;
51451;SDS011;37521;52.020;-1.740;2022-09-30T04:17:05;2.22;;;1.40;;
51451;SDS011;37521;52.020;-1.740;2022-09-30T04:19:33;2.60;;;1.55;;
51451;SDS011;37521;52.020;-1.740;2022-09-30T04:22:06;2.22;;;1.52;;
51451;SDS011;37521;52.020;-1.740;2022-09-30T04:24:35;1.60;;;1.48;;
51451;SDS011;37521;52.020;-1.740;2022-09-30T04:27:06;2.22;;;1.60;;
51451;SDS011;37521;52.020;-1.740;2022-09-30T04:29:34;2.65;;;2.05;;
51451;SDS011;37521;52.020;-1.740;2022-09-30T04:32:02;4.93;;;2.30;;
51451;SDS011;37521;52.020;-1.740;2022-09-30T04:34:31;3.80;;;1.83;;
51451;SDS011;37521;52.020;-1.740;2022-09-30T04:37:00;2.53;;;2.05;;
51451;SDS011;37521;52.020;-1.740;2022-09-30T04:39:34;4.43;;;2.35;;
51451;SDS011;37521;52.020;-1.740;2022-09-30T04:42:02;4.60;;;2.50;;
51451;SDS011;37521;52.020;-1.740;2022-09-30T04:44:32;3.92;;;1.92;;
51451;SDS011;37521;52.020;-1.740;2022-09-30T04:47:01;4.70;;;2.60;;
51451;SDS011;37521;52.020;-1.740;2022-09-30T04:49:29;3.28;;;2.38;;
51451;SDS011;37521;52.020;-1.740;2022-09-30T04:51:57;5.40;;;2.17;;
51451;SDS011;37521;52.020;-1.740;2022-09-30T04:54:25;3.22;;;1.65;;
51451;SDS011;37521;52.020;-1.740;2022-09-30T04:56:54;4.57;;;1.73;;
51451;SDS011;37521;52.020;-1.740;2022-09-30T04:59:22;2.22;;;2.03;;
51451;SDS011;37521;52.020;-1.740;2022-09-30T05:01:51;2.28;;;1.73;;
51451;SDS011;37521;52.020;-1.740;2022-09-30T05:04:20;1.80;;;1.45;;
51451;SDS011;37521;52.020;-1.740;2022-09-30T05:06:48;3.35;;;1.70;;
51451;SDS011;37521;52.020;-1.740;2022-09-30T05:09:17;3.20;;;2.03;;
51451;SDS011;37521;52.020;-1.740;2022-09-30T05:11:45;2.47;;;1.70;;
51451;SDS011;37521;52.020;-1.740;2022-09-30T05:14:14;2.30;;;2.00;;
51451;SDS011;37521;52.020;-1.740;2022-09-30T05:16:42;2.30;;;1.67;;
51451;SDS011;37521;52.020;-1.740;2022-09-30T05:19:12;2.00;;;1.80;;
51451;SDS011;37521;52.020;-1.740;2022-09-30T05:21:40;3.67;;;2.10;;
51451;SDS011;37521;52.020;-1.740;2022-09-30T05:24:08;2.33;;;1.55;;
51451;SDS011;37521;52.020;-1.740;2022-09-30T05:26:37;1.63;;;1.30;;
51451;SDS011;37521;52.020;-1.740;2022-09-30T05:29:06;1.83;;;1.60;;
51451;SDS011;37521;52.020;-1.740;2022-09-30T05:31:36;3.90;;;1.67;;
51451;SDS011;37521;52.020;-1.740;2022-09-30T05:34:04;2.70;;;1.52;;
51451;SDS011;37521;52.020;-1.740;2022-09-30T05:36:34;1.67;;;1.58;;
51451;SDS011;37521;52.020;-1.740;2022-09-30T05:39:03;2.55;;;1.58;;
51451;SDS011;37521;52.020;-1.740;2022-09-30T05:41:31;2.17;;;1.20;;
51451;SDS011;37521;52.020;-1.740;2022-09-30T05:44:00;1.20;;;0.93;;
51451;SDS011;37521;52.020;-1.740;2022-09-30T05:46:28;1.00;;;1.00;;
51451;SDS011;37521;52.020;-1.740;2022-09-30T05:48:56;2.17;;;1.27;;
51451;SDS011;37521;52.020;-1.740;2022-09-30T05:51:25;2.00;;;1.38;;
51451;SDS011;37521;52.020;-1.740;2022-09-30T05:53:54;1.60;;;1.50;;
51451;SDS011;37521;52.020;-1.740;2022-09-30T05:56:23;1.52;;;1.38;;
51451;SDS011;37521;52.020;-1.740;2022-09-30T05:58:51;1.75;;;1.20;;
51451;SDS011;37521;52.020;-1.740;2022-09-30T06:01:20;1.40;;;1.30;;
51451;SDS011;37521;52.020;-1.740;2022-09-30T06:03:48;1.63;;;1.38;;
51451;SDS011;37521;52.020;-1.740;2022-09-30T06:06:16;1.20;;;1.10;;
51451;SDS011;37521;52.020;-1.740;2022-09-30T06:08:46;1.35;;;1.25;;
51451;SDS011;37521;52.020;-1.740;2022-09-30T06:11:16;1.48;;;1.08;;
51451;SDS011;37521;52.020;-1.740;2022-09-30T06:13:46;1.10;;;1.00;;
51451;SDS011;37521;52.020;-1.740;2022-09-30T06:16:15;2.15;;;1.13;;
51451;SDS011;37521;52.020;-1.740;2022-09-30T06:18:45;1.38;;;1.02;;
51451;SDS011;37521;52.020;-1.740;2022-09-30T06:21:13;0.95;;;0.93;;
51451;SDS011;37521;52.020;-1.740;2022-09-30T06:23:43;6.15;;;1.38;;
51451;SDS011;37521;52.020;-1.740;2022-09-30T06:26:12;1.65;;;1.55;;
51451;SDS011;37521;52.020;-1.740;2022-09-30T06:28:43;3.35;;;1.50;;
51451;SDS011;37521;52.020;-1.740;2022-09-30T06:31:11;1.67;;;1.27;;
51451;SDS011;37521;52.020;-1.740;2022-09-30T06:33:40;1.20;;;1.10;;
51451;SDS011;37521;52.020;-1.740;2022-09-30T06:36:09;1.27;;;1.08;;
51451;SDS011;37521;52.020;-1.740;2022-09-30T06:38:37;1.23;;;1.15;;
51451;SDS011;37521;52.020;-1.740;2022-09-30T06:41:06;1.50;;;1.10;;
51451;SDS011;37521;52.020;-1.740;2022-09-30T06:43:35;1.45;;;1.20;;
51451;SDS011;37521;52.020;-1.740;2022-09-30T06:46:09;1.63;;;1.38;;
51451;SDS011;37521;52.020;-1.740;2022-09-30T06:48:44;3.15;;;1.58;;
51451;SDS011;37521;52.020;-1.740;2022-09-30T06:51:12;1.67;;;1.52;;
51451;SDS011;37521;52.020;-1.740;2022-09-30T06:53:40;2.25;;;2.00;;
51451;SDS011;37521;52.020;-1.740;2022-09-30T06:56:09;2.90;;;1.58;;
51451;SDS011;37521;52.020;-1.740;2022-09-30T06:58:37;2.75;;;2.17;;
51451;SDS011;37521;52.020;-1.740;2022-09-30T07:01:07;3.47;;;2.25;;
51451;SDS011;37521;52.020;-1.740;2022-09-30T07:03:38;5.10;;;2.15;;
51451;SDS011;37521;52.020;-1.740;2022-09-30T07:06:06;6.65;;;2.60;;
51451;SDS011;37521;52.020;-1.740;2022-09-30T07:08:35;4.05;;;2.67;;
51451;SDS011;37521;52.020;-1.740;2022-09-30T07:11:06;5.18;;;2.55;;
51451;SDS011;37521;52.020;-1.740;2022-09-30T07:13:40;5.78;;;2.65;;
51451;SDS011;37521;52.020;-1.740;2022-09-30T07:16:09;4.18;;;2.30;;
51451;SDS011;37521;52.020;-1.740;2022-09-30T07:18:40;6.65;;;3.00;;
51451;SDS011;37521;52.020;-1.740;2022-09-30T07:21:09;6.10;;;2.72;;
51451;SDS011;37521;52.020;-1.740;2022-09-30T07:23:39;4.53;;;2.17;;
51451;SDS011;37521;52.020;-1.740;2022-09-30T07:26:11;4.65;;;2.35;;
51451;SDS011;37521;52.020;-1.740;2022-09-30T07:28:39;5.32;;;3.10;;
51451;SDS011;37521;52.020;-1.740;2022-09-30T07:31:09;4.00;;;2.72;;
51451;SDS011;37521;52.020;-1.740;2022-09-30T07:34:02;4.95;;;2.85;;
51451;SDS011;37521;52.020;-1.740;2022-09-30T07:36:33;3.22;;;2.30;;
51451;SDS011;37521;52.020;-1.740;2022-09-30T07:39:03;7.38;;;2.92;;
51451;SDS011;37521;52.020;-1.740;2022-09-30T07:41:34;4.35;;;2.35;;
51451;SDS011;37521;52.020;-1.740;2022-09-30T07:44:06;5.90;;;3.38;;
51451;SDS011;37521;52.020;-1.740;2022-09-30T07:46:37;4.97;;;3.07;;
51451;SDS011;37521;52.020;-1.740;2022-09-30T07:49:09;4.97;;;2.78;;
51451;SDS011;37521;52.020;-1.740;2022-09-30T07:51:40;4.65;;;2.83;;
51451;SDS011;37521;52.020;-1.740;2022-09-30T07:54:12;4.13;;;2.42;;
51451;SDS011;37521;52.020;-1.740;2022-09-30T07:56:42;4.93;;;2.42;;
51451;SDS011;37521;52.020;-1.740;2022-09-30T07:59:32;4.45;;;2.65;;
51451;SDS011;37521;52.020;-1.740;2022-09-30T08:02:03;6.20;;;2.72;;
51451;SDS011;37521;52.020;-1.740;2022-09-30T08:04:33;5.47;;;2.85;;
51451;SDS011;37521;52.020;-1.740;2022-09-30T08:07:09;6.72;;;2.78;;
51451;SDS011;37521;52.020;-1.740;2022-09-30T08:09:37;4.43;;;2.80;;
51451;SDS011;37521;52.020;-1.740;2022-09-30T08:12:06;5.45;;;2.97;;
51451;SDS011;37521;52.020;-1.740;2022-09-30T08:14:34;6.63;;;3.13;;
51451;SDS011;37521;52.020;-1.740;2022-09-30T08:17:03;6.43;;;3.28;;
51451;SDS011;37521;52.020;-1.740;2022-09-30T08:19:32;4.75;;;3.13;;
51451;SDS011;37521;52.020;-1.740;2022-09-30T08:22:07;6.15;;;3.20;;
51451;SDS011;37521;52.020;-1.740;2022-09-30T08:24:36;4.75;;;3.15;;
51451;SDS011;37521;52.020;-1.740;2022-09-30T08:27:04;5.90;;;3.05;;
51451;SDS011;37521;52.020;-1.740;2022-09-30T08:29:32;6.57;;;3.25;;
51451;SDS011;37521;52.020;-1.740;2022-09-30T08:32:20;6.15;;;3.65;;
51451;SDS011;37521;52.020;-1.740;2022-09-30T08:34:49;5.95;;;3.15;;
51451;SDS011;37521;52.020;-1.740;2022-09-30T08:37:17;7.28;;;4.07;;
51451;SDS011;37521;52.020;-1.740;2022-09-30T08:39:46;6.10;;;3.58;;
51451;SDS011;37521;52.020;-1.740;2022-09-30T08:42:21;8.02;;;3.88;;
51451;SDS011;37521;52.020;-1.740;2022-09-30T08:45:06;7.18;;;3.88;;
51451;SDS011;37521;52.020;-1.740;2022-09-30T08:47:45;6.82;;;3.80;;
51451;SDS011;37521;52.020;-1.740;2022-09-30T08:50:21;7.60;;;4.03;;
51451;SDS011;37521;52.020;-1.740;2022-09-30T08:52:57;6.45;;;3.55;;
51451;SDS011;37521;52.020;-1.740;2022-09-30T08:55:28;7.32;;;3.63;;
51451;SDS011;37521;52.020;-1.740;2022-09-30T08:58:02;5.10;;;3.72;;
51451;SDS011;37521;52.020;-1.740;2022-09-30T09:00:31;8.30;;;3.50;;
51451;SDS011;37521;52.020;-1.740;2022-09-30T09:03:01;7.13;;;3.42;;
51451;SDS011;37521;52.020;-1.740;2022-09-30T09:05:37;8.15;;;3.70;;
51451;SDS011;37521;52.020;-1.740;2022-09-30T09:08:20;9.45;;;4.60;;
51451;SDS011;37521;52.020;-1.740;2022-09-30T09:10:58;8.80;;;4.68;;
51451;SDS011;37521;52.020;-1.740;2022-09-30T09:13:36;7.43;;;3.85;;
51451;SDS011;37521;52.020;-1.740;2022-09-30T09:16:14;5.85;;;3.47;;
51451;SDS011;37521;52.020;-1.740;2022-09-30T09:18:51;6.43;;;3.42;;
51451;SDS011;37521;52.020;-1.740;2022-09-30T09:21:30;6.20;;;3.35;;
51451;SDS011;37521;52.020;-1.740;2022-09-30T09:24:12;6.35;;;3.47;;
51451;SDS011;37521;52.020;-1.740;2022-09-30T09:26:44;4.43;;;2.97;;
51451;SDS011;37521;52.020;-1.740;2022-09-30T09:29:19;6.25;;;3.50;;
51451;SDS011;37521;52.020;-1.740;2022-09-30T09:31:52;4.40;;;2.55;;
51451;SDS011;37521;52.020;-1.740;2022-09-30T09:34:22;5.93;;;3.67;;
51451;SDS011;37521;52.020;-1.740;2022-09-30T09:36:57;7.90;;;4.05;;
51451;SDS011;37521;52.020;-1.740;2022-09-30T09:39:41;5.80;;;4.05;;
51451;SDS011;37521;52.020;-1.740;2022-09-30T09:42:31;6.88;;;3.28;;
51451;SDS011;37521;52.020;-1.740;2022-09-30T09:45:15;5.50;;;3.33;;
51451;SDS011;37521;52.020;-1.740;2022-09-30T09:47:50;6.07;;;3.38;;
51451;SDS011;37521;52.020;-1.740;2022-09-30T09:50:21;8.52;;;4.03;;
51451;SDS011;37521;52.020;-1.740;2022-09-30T09:53:01;5.13;;;3.85;;
51451;SDS011;37521;52.020;-1.740;2022-09-30T09:55:42;7.32;;;4.93;;
51451;SDS011;37521;52.020;-1.740;2022-09-30T09:58:11;8.00;;;4.32;;
51451;SDS011;37521;52.020;-1.740;2022-09-30T10:00:42;6.78;;;4.30;;
51451;SDS011;37521;52.020;-1.740;2022-09-30T10:03:35;6.18;;;3.92;;
51451;SDS011;37521;52.020;-1.740;2022-09-30T10:06:04;6.38;;;4.03;;
51451;SDS011;37521;52.020;-1.740;2022-09-30T10:08:37;8.57;;;4.28;;
51451;SDS011;37521;52.020;-1.740;2022-09-30T10:11:16;6.68;;;3.70;;
51451;SDS011;37521;52.020;-1.740;2022-09-30T10:13:47;7.10;;;4.00;;
51451;SDS011;37521;52.020;-1.740;2022-09-30T10:16:25;4.90;;;3.90;;
51451;SDS011;37521;52.020;-1.740;2022-09-30T10:18:57;4.65;;;3.17;;
51451;SDS011;37521;52.020;-1.740;2022-09-30T10:21:29;4.82;;;3.35;;
51451;SDS011;37521;52.020;-1.740;2022-09-30T10:23:59;5.70;;;3.28;;
51451;SDS011;37521;52.020;-1.740;2022-09-30T10:26:46;6.32;;;3.42;;
51451;SDS011;37521;52.020;-1.740;2022-09-30T10:29:23;5.40;;;3.63;;
51451;SDS011;37521;52.020;-1.740;2022-09-30T10:31:54;6.03;;;3.30;;
51451;SDS011;37521;52.020;-1.740;2022-09-30T10:34:26;5.93;;;3.58;;
51451;SDS011;37521;52.020;-1.740;2022-09-30T10:37:00;4.45;;;3.33;;
51451;SDS011;37521;52.020;-1.740;2022-09-30T10:39:36;6.28;;;3.80;;
51451;SDS011;37521;52.020;-1.740;2022-09-30T10:42:20;3.83;;;2.83;;
51451;SDS011;37521;52.020;-1.740;2022-09-30T10:44:53;6.85;;;3.53;;
51451;SDS011;37521;52.020;-1.740;2022-09-30T10:47:24;7.80;;;3.15;;
51451;SDS011;37521;52.020;-1.740;2022-09-30T10:50:02;6.05;;;3.42;;
51451;SDS011;37521;52.020;-1.740;2022-09-30T10:52:33;6.20;;;3.53;;
51451;SDS011;37521;52.020;-1.740;2022-09-30T10:55:08;5.78;;;2.92;;
51451;SDS011;37521;52.020;-1.740;2022-09-30T10:57:54;4.18;;;3.08;;
51451;SDS011;37521;52.020;-1.740;2022-09-30T11:00:30;5.60;;;3.50;;
51451;SDS011;37521;52.020;-1.740;2022-09-30T11:03:02;3.55;;;2.42;;
51451;SDS011;37521;52.020;-1.740;2022-09-30T11:05:37;5.60;;;3.33;;
51451;SDS011;37521;52.020;-1.740;2022-09-30T11:08:09;4.15;;;2.88;;
51451;SDS011;37521;52.020;-1.740;2022-09-30T11:10:49;5.70;;;3.42;;
51451;SDS011;37521;52.020;-1.740;2022-09-30T11:13:26;4.28;;;2.40;;
51451;SDS011;37521;52.020;-1.740;2022-09-30T11:16:05;4.00;;;2.70;;
51451;SDS011;37521;52.020;-1.740;2022-09-30T11:18:44;5.18;;;2.72;;
51451;SDS011;37521;52.020;-1.740;2022-09-30T11:21:17;4.07;;;2.53;;
51451;SDS011;37521;52.020;-1.740;2022-09-30T11:23:51;4.30;;;2.67;;
51451;SDS011;37521;52.020;-1.740;2022-09-30T11:26:29;3.38;;;2.53;;
51451;SDS011;37521;52.020;-1.740;2022-09-30T11:29:13;3.33;;;2.83;;
51451;SDS011;37521;52.020;-1.740;2022-09-30T11:32:00;4.32;;;2.35;;
51451;SDS011;37521;52.020;-1.740;2022-09-30T11:34:41;3.25;;;2.40;;
51451;SDS011;37521;52.020;-1.740;2022-09-30T11:37:19;2.83;;;2.30;;
51451;SDS011;37521;52.020;-1.740;2022-09-30T11:40:02;1.83;;;1.73;;
51451;SDS011;37521;52.020;-1.740;2022-09-30T11:42:50;5.07;;;2.05;;
51451;SDS011;37521;52.020;-1.740;2022-09-30T11:45:28;5.18;;;2.50;;
51451;SDS011;37521;52.020;-1.740;2022-09-30T11:48:09;2.95;;;1.90;;
51451;SDS011;37521;52.020;-1.740;2022-09-30T11:50:49;1.85;;;1.58;;
51451;SDS011;37521;52.020;-1.740;2022-09-30T11:53:26;2.45;;;2.00;;
51451;SDS011;37521;52.020;-1.740;2022-09-30T11:56:05;1.90;;;1.25;;
51451;SDS011;37521;52.020;-1.740;2022-09-30T11:58:46;3.17;;;1.92;;
51451;SDS011;37521;52.020;-1.740;2022-09-30T12:01:19;1.40;;;1.13;;
51451;SDS011;37521;52.020;-1.740;2022-09-30T12:03:58;2.72;;;1.70;;
51451;SDS011;37521;52.020;-1.740;2022-09-30T12:06:32;3.92;;;2.03;;
51451;SDS011;37521;52.020;-1.740;2022-09-30T12:09:05;1.02;;;0.95;;
51451;SDS011;37521;52.020;-1.740;2022-09-30T12:11:42;2.50;;;1.55;;
51451;SDS011;37521;52.020;-1.740;2022-09-30T12:14:19;2.85;;;1.67;;
51451;SDS011;37521;52.020;-1.740;2022-09-30T12:16:53;2.95;;;2.22;;
51451;SDS011;37521;52.020;-1.740;2022-09-30T12:19:24;2.45;;;1.38;;
51451;SDS011;37521;52.020;-1.740;2022-09-30T12:21:57;1.88;;;1.70;;
51451;SDS011;37521;52.020;-1.740;2022-09-30T12:24:34;4.00;;;2.03;;
51451;SDS011;37521;52.020;-1.740;2022-09-30T12:27:04;3.05;;;1.67;;
51451;SDS011;37521;52.020;-1.740;2022-09-30T12:29:44;2.67;;;2.17;;
51451;SDS011;37521;52.020;-1.740;2022-09-30T12:38:42;3.33;;;2.00;;
51451;SDS011;37521;52.020;-1.740;2022-09-30T12:41:25;1.80;;;1.52;;
51451;SDS011;37521;52.020;-1.740;2022-09-30T12:47:16;2.90;;;1.63;;
51451;SDS011;37521;52.020;-1.740;2022-09-30T12:49:54;2.83;;;1.70;;
51451;SDS011;37521;52.020;-1.740;2022-09-30T12:52:25;1.58;;;1.42;;
51451;SDS011;37521;52.020;-1.740;2022-09-30T12:55:01;4.35;;;1.60;;
51451;SDS011;37521;52.020;-1.740;2022-09-30T12:57:36;2.08;;;1.70;;
51451;SDS011;37521;52.020;-1.740;2022-09-30T13:02:43;2.95;;;1.77;;
51451;SDS011;37521;52.020;-1.740;2022-09-30T13:08:23;2.13;;;1.35;;
51451;SDS011;37521;52.020;-1.740;2022-09-30T13:11:04;4.47;;;1.48;;
51451;SDS011;37521;52.020;-1.740;2022-09-30T13:13:55;2.17;;;1.60;;
51451;SDS011;37521;52.020;-1.740;2022-09-30T13:19:33;1.80;;;1.60;;
51451;SDS011;37521;52.020;-1.740;2022-09-30T13:25:11;2.92;;;0.93;;
51451;SDS011;37521;52.020;-1.740;2022-09-30T13:27:41;3.22;;;1.02;;
51451;SDS011;37521;52.020;-1.740;2022-09-30T13:33:04;3.28;;;0.95;;
51451;SDS011;37521;52.020;-1.740;2022-09-30T13:35:55;2.08;;;0.70;;
51451;SDS011;37521;52.020;-1.740;2022-09-30T13:38:32;1.80;;;0.77;;
51451;SDS011;37521;52.020;-1.740;2022-09-30T13:41:04;0.98;;;0.70;;
51451;SDS011;37521;52.020;-1.740;2022-09-30T13:43:42;1.50;;;0.85;;
51451;SDS011;37521;52.020;-1.740;2022-09-30T13:46:20;1.70;;;0.57;;
51451;SDS011;37521;52.020;-1.740;2022-09-30T13:48:56;0.40;;;0.40;;
51451;SDS011;37521;52.020;-1.740;2022-09-30T13:51:30;1.10;;;0.53;;
51451;SDS011;37521;52.020;-1.740;2022-09-30T13:54:01;1.60;;;0.73;;
51451;SDS011;37521;52.020;-1.740;2022-09-30T13:56:35;1.48;;;0.68;;
51451;SDS011;37521;52.020;-1.740;2022-09-30T14:02:01;1.30;;;0.70;;
51451;SDS011;37521;52.020;-1.740;2022-09-30T14:04:49;1.00;;;0.47;;
51451;SDS011;37521;52.020;-1.740;2022-09-30T14:07:34;2.70;;;0.63;;
51451;SDS011;37521;52.020;-1.740;2022-09-30T14:10:17;2.70;;;0.68;;
51451;SDS011;37521;52.020;-1.740;2022-09-30T14:13:01;0.40;;;0.40;;
51451;SDS011;37521;52.020;-1.740;2022-09-30T14:15:44;1.65;;;0.82;;
51451;SDS011;37521;52.020;-1.740;2022-09-30T14:18:27;1.75;;;0.82;;
51451;SDS011;37521;52.020;-1.740;2022-09-30T14:21:15;2.38;;;0.93;;
51451;SDS011;37521;52.020;-1.740;2022-09-30T14:23:56;0.85;;;0.82;;
51451;SDS011;37521;52.020;-1.740;2022-09-30T14:26:35;1.48;;;0.70;;
51451;SDS011;37521;52.020;-1.740;2022-09-30T14:29:16;0.82;;;0.60;;
51451;SDS011;37521;52.020;-1.740;2022-09-30T14:31:52;1.42;;;0.88;;
51451;SDS011;37521;52.020;-1.740;2022-09-30T14:34:22;2.60;;;0.82;;
51451;SDS011;37521;52.020;-1.740;2022-09-30T14:36:51;1.33;;;0.40;;
51451;SDS011;37521;52.020;-1.740;2022-09-30T14:39:23;0.45;;;0.40;;
51451;SDS011;37521;52.020;-1.740;2022-09-30T14:41:56;0.93;;;0.80;;
51451;SDS011;37521;52.020;-1.740;2022-09-30T14:44:28;1.70;;;0.77;;
51451;SDS011;37521;52.020;-1.740;2022-09-30T14:47:02;1.98;;;0.73;;
51451;SDS011;37521;52.020;-1.740;2022-09-30T14:49:32;0.40;;;0.40;;
51451;SDS011;37521;52.020;-1.740;2022-09-30T14:52:03;2.92;;;0.70;;
51451;SDS011;37521;52.020;-1.740;2022-09-30T14:54:33;1.35;;;0.60;;
51451;SDS011;37521;52.020;-1.740;2022-09-30T14:57:14;1.38;;;0.70;;
51451;SDS011;37521;52.020;-1.740;2022-09-30T14:59:44;1.23;;;0.68;;
51451;SDS011;37521;52.020;-1.740;2022-09-30T15:02:13;0.30;;;0.30;;
51451;SDS011;37521;52.020;-1.740;2022-09-30T15:04:47;0.43;;;0.43;;
51451;SDS011;37521;52.020;-1.740;2022-09-30T15:07:18;3.30;;;1.00;;
51451;SDS011;37521;52.020;-1.740;2022-09-30T15:09:48;1.20;;;0.70;;
51451;SDS011;37521;52.020;-1.740;2022-09-30T15:12:17;2.05;;;0.80;;
51451;SDS011;37521;52.020;-1.740;2022-09-30T15:14:48;1.25;;;0.50;;
51451;SDS011;37521;52.020;-1.740;2022-09-30T15:17:19;1.70;;;0.70;;
51451;SDS011;37521;52.020;-1.740;2022-09-30T15:19:49;0.47;;;0.30;;
51451;SDS011;37521;52.020;-1.740;2022-09-30T15:22:17;1.05;;;0.43;;
51451;SDS011;37521;52.020;-1.740;2022-09-30T15:24:49;0.73;;;0.20;;
51451;SDS011;37521;52.020;-1.740;2022-09-30T15:27:19;0.40;;;0.32;;
51451;SDS011;37521;52.020;-1.740;2022-09-30T15:29:53;0.30;;;0.30;;
51451;SDS011;37521;52.020;-1.740;2022-09-30T15:32:22;0.30;;;0.30;;
51451;SDS011;37521;52.020;-1.740;2022-09-30T15:34:53;3.13;;;0.30;;
51451;SDS011;37521;52.020;-1.740;2022-09-30T15:37:25;0.35;;;0.32;;
51451;SDS011;37521;52.020;-1.740;2022-09-30T15:40:01;3.60;;;0.70;;
51451;SDS011;37521;52.020;-1.740;2022-09-30T15:42:51;1.38;;;0.50;;
51451;SDS011;37521;52.020;-1.740;2022-09-30T15:45:27;0.85;;;0.47;;
51451;SDS011;37521;52.020;-1.740;2022-09-30T15:48:03;2.53;;;0.52;;